Startpagina
METAR-TAF:

METAR-TAF

Vliegvelden :

Touho, Nieuw-Caledonië

breedte: 20-47-25S, lengte: 165-15-34E, hoogte: 3 m

METAR: ontbreekt

Tijdstip: 10:26 (23:26 UTC)

Verwachting

Dit bericht is 6 uur en het 26 minuten geleden gemaakt, om 17:00 UTC
Verwachting geldig van 13 om 18 UTC tot 14 om 18 UTC
Wind 6 kt uit het oostzuidoosten
Zicht 10 km of meer
Weinig wolken op 3000 ft
Gebroken wolken op 5000 ft
Tijdelijke
van 13 om 18 UTC tot 13 om 24 UTC
Weinig wolken op 2000 ft, Stapelwolken.
regenbuien

TAF: NWWU 131700Z 1318/1418 12006KT 9999 FEW030 BKN050 TEMPO 1318/1324 SHRA FEW020TCU

Waarnemingen en weersverwachtingen van meer dan 4000 vliegvelden (METAR en TAF).

De beschikbare stations zijn de gele en rode punten op de kaart.

Ga met uw muis naar het station om de naam te zien.

Klik dan om waarnemingen en weersverwachtingen te zien.

kaart wijzigen: klik op de groene knoppen met een zwart kruis om in te zoomen, op de groene knop met een streepje om uit te zoomen of op de groene pijlen voor aangrenzende kaarten.


METAR-TAF: